sensor_id;sensor_type;location;lat;lon;timestamp;temperature;humidity
64987;DHT22;67903;52.108;9.358;2023-05-10T00:00:57;15.80;50.00
64987;DHT22;67903;52.108;9.358;2023-05-10T00:03:44;15.90;49.80
64987;DHT22;67903;52.108;9.358;2023-05-10T00:06:31;15.90;49.90
64987;DHT22;67903;52.108;9.358;2023-05-10T00:09:19;15.90;50.20
64987;DHT22;67903;52.108;9.358;2023-05-10T00:12:06;15.80;51.10
64987;DHT22;67903;52.108;9.358;2023-05-10T00:14:53;15.80;52.30
64987;DHT22;67903;52.108;9.358;2023-05-10T00:17:40;15.70;53.20
64987;DHT22;67903;52.108;9.358;2023-05-10T00:20:27;15.60;54.00
64987;DHT22;67903;52.108;9.358;2023-05-10T00:23:14;15.50;54.10
64987;DHT22;67903;52.108;9.358;2023-05-10T00:26:01;15.40;55.00
64987;DHT22;67903;52.108;9.358;2023-05-10T00:28:48;15.30;55.30
64987;DHT22;67903;52.108;9.358;2023-05-10T00:31:37;15.30;55.60
64987;DHT22;67903;52.108;9.358;2023-05-10T00:34:24;15.30;56.10
64987;DHT22;67903;52.108;9.358;2023-05-10T00:37:11;15.40;57.00
64987;DHT22;67903;52.108;9.358;2023-05-10T00:39:59;15.30;57.10
64987;DHT22;67903;52.108;9.358;2023-05-10T00:42:46;15.30;56.20
64987;DHT22;67903;52.108;9.358;2023-05-10T00:45:34;15.40;57.00
64987;DHT22;67903;52.108;9.358;2023-05-10T00:48:23;15.30;56.90
64987;DHT22;67903;52.108;9.358;2023-05-10T00:51:10;15.40;57.30
64987;DHT22;67903;52.108;9.358;2023-05-10T00:53:58;15.40;57.60
64987;DHT22;67903;52.108;9.358;2023-05-10T00:56:45;15.30;57.80
64987;DHT22;67903;52.108;9.358;2023-05-10T00:59:35;15.30;57.20
64987;DHT22;67903;52.108;9.358;2023-05-10T01:02:22;15.20;58.10
64987;DHT22;67903;52.108;9.358;2023-05-10T01:05:10;15.20;57.80
64987;DHT22;67903;52.108;9.358;2023-05-10T01:07:57;15.20;59.40
64987;DHT22;67903;52.108;9.358;2023-05-10T01:10:44;15.20;59.40
64987;DHT22;67903;52.108;9.358;2023-05-10T01:13:41;15.00;59.30
64987;DHT22;67903;52.108;9.358;2023-05-10T01:16:32;15.00;60.20
64987;DHT22;67903;52.108;9.358;2023-05-10T01:19:28;14.90;59.80
64987;DHT22;67903;52.108;9.358;2023-05-10T01:22:51;14.90;61.20
64987;DHT22;67903;52.108;9.358;2023-05-10T01:32:54;14.90;60.40
64987;DHT22;67903;52.108;9.358;2023-05-10T01:38:48;14.90;60.80
64987;DHT22;67903;52.108;9.358;2023-05-10T01:41:51;15.00;62.10
64987;DHT22;67903;52.108;9.358;2023-05-10T01:44:46;14.90;62.40
64987;DHT22;67903;52.108;9.358;2023-05-10T01:47:46;14.80;63.80
64987;DHT22;67903;52.108;9.358;2023-05-10T01:50:43;14.70;64.60
64987;DHT22;67903;52.108;9.358;2023-05-10T01:53:34;14.70;66.20
64987;DHT22;67903;52.108;9.358;2023-05-10T01:56:26;14.50;67.80
64987;DHT22;67903;52.108;9.358;2023-05-10T01:59:17;14.40;67.60
64987;DHT22;67903;52.108;9.358;2023-05-10T02:02:06;14.30;69.20
64987;DHT22;67903;52.108;9.358;2023-05-10T02:04:54;14.20;68.40
64987;DHT22;67903;52.108;9.358;2023-05-10T02:07:43;14.10;68.40
64987;DHT22;67903;52.108;9.358;2023-05-10T02:10:32;14.10;68.80
64987;DHT22;67903;52.108;9.358;2023-05-10T02:13:21;14.10;69.00
64987;DHT22;67903;52.108;9.358;2023-05-10T02:16:09;14.00;68.70
64987;DHT22;67903;52.108;9.358;2023-05-10T02:18:59;14.00;70.00
64987;DHT22;67903;52.108;9.358;2023-05-10T02:21:49;13.90;69.50
64987;DHT22;67903;52.108;9.358;2023-05-10T02:24:38;13.90;69.50
64987;DHT22;67903;52.108;9.358;2023-05-10T02:27:27;13.90;69.40
64987;DHT22;67903;52.108;9.358;2023-05-10T02:30:16;13.90;69.00
64987;DHT22;67903;52.108;9.358;2023-05-10T02:33:05;13.60;70.10
64987;DHT22;67903;52.108;9.358;2023-05-10T02:35:53;13.60;70.80
64987;DHT22;67903;52.108;9.358;2023-05-10T02:38:41;13.70;70.10
64987;DHT22;67903;52.108;9.358;2023-05-10T02:41:31;13.70;70.30
64987;DHT22;67903;52.108;9.358;2023-05-10T02:44:20;13.70;70.50
64987;DHT22;67903;52.108;9.358;2023-05-10T02:47:07;13.60;69.70
64987;DHT22;67903;52.108;9.358;2023-05-10T02:49:54;13.70;70.50
64987;DHT22;67903;52.108;9.358;2023-05-10T02:52:51;13.70;70.50
64987;DHT22;67903;52.108;9.358;2023-05-10T02:55:41;13.70;70.80
64987;DHT22;67903;52.108;9.358;2023-05-10T02:58:31;13.70;72.00
64987;DHT22;67903;52.108;9.358;2023-05-10T03:01:19;13.70;71.20
64987;DHT22;67903;52.108;9.358;2023-05-10T03:04:06;13.70;71.50
64987;DHT22;67903;52.108;9.358;2023-05-10T03:06:54;13.70;71.80
64987;DHT22;67903;52.108;9.358;2023-05-10T03:09:41;13.70;71.40
64987;DHT22;67903;52.108;9.358;2023-05-10T03:12:52;13.80;71.50
64987;DHT22;67903;52.108;9.358;2023-05-10T03:15:55;13.80;71.60
64987;DHT22;67903;52.108;9.358;2023-05-10T03:18:51;13.80;72.20
64987;DHT22;67903;52.108;9.358;2023-05-10T03:21:41;13.70;71.20
64987;DHT22;67903;52.108;9.358;2023-05-10T03:24:30;13.70;71.40
64987;DHT22;67903;52.108;9.358;2023-05-10T03:27:20;13.70;71.20
64987;DHT22;67903;52.108;9.358;2023-05-10T03:30:10;13.60;72.10
64987;DHT22;67903;52.108;9.358;2023-05-10T03:33:07;13.60;72.20
64987;DHT22;67903;52.108;9.358;2023-05-10T03:35:58;13.60;72.50
64987;DHT22;67903;52.108;9.358;2023-05-10T03:38:46;13.60;72.50
64987;DHT22;67903;52.108;9.358;2023-05-10T03:41:33;13.50;73.00
64987;DHT22;67903;52.108;9.358;2023-05-10T03:44:20;13.50;72.90
64987;DHT22;67903;52.108;9.358;2023-05-10T03:47:07;13.60;74.60
64987;DHT22;67903;52.108;9.358;2023-05-10T03:49:55;13.50;75.20
64987;DHT22;67903;52.108;9.358;2023-05-10T03:52:42;13.30;74.90
64987;DHT22;67903;52.108;9.358;2023-05-10T03:55:30;13.20;76.40
64987;DHT22;67903;52.108;9.358;2023-05-10T03:58:21;13.30;76.20
64987;DHT22;67903;52.108;9.358;2023-05-10T04:01:08;13.20;76.70
64987;DHT22;67903;52.108;9.358;2023-05-10T04:03:55;13.10;76.60
64987;DHT22;67903;52.108;9.358;2023-05-10T04:06:43;13.00;76.80
64987;DHT22;67903;52.108;9.358;2023-05-10T04:09:30;13.00;77.00
64987;DHT22;67903;52.108;9.358;2023-05-10T04:12:17;13.10;77.10
64987;DHT22;67903;52.108;9.358;2023-05-10T04:15:04;13.10;76.90
64987;DHT22;67903;52.108;9.358;2023-05-10T04:17:51;13.00;75.50
64987;DHT22;67903;52.108;9.358;2023-05-10T04:20:38;13.10;76.00
64987;DHT22;67903;52.108;9.358;2023-05-10T04:23:26;13.00;77.30
64987;DHT22;67903;52.108;9.358;2023-05-10T04:26:14;12.90;78.10
64987;DHT22;67903;52.108;9.358;2023-05-10T04:29:01;12.10;88.10
64987;DHT22;67903;52.108;9.358;2023-05-10T04:31:48;11.50;91.10
64987;DHT22;67903;52.108;9.358;2023-05-10T04:34:36;11.30;92.50
64987;DHT22;67903;52.108;9.358;2023-05-10T04:37:24;11.30;93.30
64987;DHT22;67903;52.108;9.358;2023-05-10T04:40:11;11.40;93.70
64987;DHT22;67903;52.108;9.358;2023-05-10T04:42:58;11.50;94.10
64987;DHT22;67903;52.108;9.358;2023-05-10T04:45:45;11.60;94.40
64987;DHT22;67903;52.108;9.358;2023-05-10T04:48:33;11.70;94.60
64987;DHT22;67903;52.108;9.358;2023-05-10T04:51:20;11.50;94.60
64987;DHT22;67903;52.108;9.358;2023-05-10T04:54:07;11.70;94.80
64987;DHT22;67903;52.108;9.358;2023-05-10T04:56:54;11.50;94.50
64987;DHT22;67903;52.108;9.358;2023-05-10T04:59:42;11.60;94.70
64987;DHT22;67903;52.108;9.358;2023-05-10T05:02:29;11.70;94.80
64987;DHT22;67903;52.108;9.358;2023-05-10T05:05:16;11.90;94.80
64987;DHT22;67903;52.108;9.358;2023-05-10T05:08:03;11.90;94.70
64987;DHT22;67903;52.108;9.358;2023-05-10T05:10:50;11.90;94.50
64987;DHT22;67903;52.108;9.358;2023-05-10T05:13:38;11.90;94.30
64987;DHT22;67903;52.108;9.358;2023-05-10T05:16:25;11.90;94.10
64987;DHT22;67903;52.108;9.358;2023-05-10T05:19:13;12.00;93.70
64987;DHT22;67903;52.108;9.358;2023-05-10T05:22:00;12.10;92.90
64987;DHT22;67903;52.108;9.358;2023-05-10T05:24:47;12.10;92.30
64987;DHT22;67903;52.108;9.358;2023-05-10T05:27:34;12.20;91.70
64987;DHT22;67903;52.108;9.358;2023-05-10T05:30:21;12.30;91.30
64987;DHT22;67903;52.108;9.358;2023-05-10T05:33:08;12.40;90.80
64987;DHT22;67903;52.108;9.358;2023-05-10T05:35:55;12.50;89.70
64987;DHT22;67903;52.108;9.358;2023-05-10T05:38:42;12.50;89.60
64987;DHT22;67903;52.108;9.358;2023-05-10T05:41:29;12.50;89.00
64987;DHT22;67903;52.108;9.358;2023-05-10T05:44:16;12.50;88.60
64987;DHT22;67903;52.108;9.358;2023-05-10T05:47:04;12.50;88.40
64987;DHT22;67903;52.108;9.358;2023-05-10T05:49:51;12.50;87.90
64987;DHT22;67903;52.108;9.358;2023-05-10T05:52:38;12.70;87.20
64987;DHT22;67903;52.108;9.358;2023-05-10T05:55:25;12.70;86.20
64987;DHT22;67903;52.108;9.358;2023-05-10T05:58:12;12.70;85.90
64987;DHT22;67903;52.108;9.358;2023-05-10T06:00:59;12.80;85.70
64987;DHT22;67903;52.108;9.358;2023-05-10T06:03:46;12.80;86.80
64987;DHT22;67903;52.108;9.358;2023-05-10T06:06:36;12.80;85.90
64987;DHT22;67903;52.108;9.358;2023-05-10T06:09:23;12.90;85.90
64987;DHT22;67903;52.108;9.358;2023-05-10T06:12:11;12.90;85.70
64987;DHT22;67903;52.108;9.358;2023-05-10T06:14:58;12.90;86.10
64987;DHT22;67903;52.108;9.358;2023-05-10T06:17:45;12.80;86.20
64987;DHT22;67903;52.108;9.358;2023-05-10T06:20:34;12.90;86.10
64987;DHT22;67903;52.108;9.358;2023-05-10T06:23:21;12.90;86.40
64987;DHT22;67903;52.108;9.358;2023-05-10T06:26:09;12.80;86.90
64987;DHT22;67903;52.108;9.358;2023-05-10T06:28:56;12.70;87.40
64987;DHT22;67903;52.108;9.358;2023-05-10T06:31:43;12.80;88.10
64987;DHT22;67903;52.108;9.358;2023-05-10T06:34:30;12.90;87.60
64987;DHT22;67903;52.108;9.358;2023-05-10T06:37:18;13.00;87.40
64987;DHT22;67903;52.108;9.358;2023-05-10T06:40:06;12.90;87.60
64987;DHT22;67903;52.108;9.358;2023-05-10T06:42:53;13.00;87.80
64987;DHT22;67903;52.108;9.358;2023-05-10T06:45:40;13.00;87.00
64987;DHT22;67903;52.108;9.358;2023-05-10T06:48:27;13.10;87.20
64987;DHT22;67903;52.108;9.358;2023-05-10T06:51:15;13.10;87.10
64987;DHT22;67903;52.108;9.358;2023-05-10T06:54:02;13.10;87.10
64987;DHT22;67903;52.108;9.358;2023-05-10T06:56:49;13.30;86.60
64987;DHT22;67903;52.108;9.358;2023-05-10T06:59:36;13.30;86.80
64987;DHT22;67903;52.108;9.358;2023-05-10T07:02:24;13.30;86.60
64987;DHT22;67903;52.108;9.358;2023-05-10T07:05:11;13.30;87.00
64987;DHT22;67903;52.108;9.358;2023-05-10T07:07:58;13.50;85.70
64987;DHT22;67903;52.108;9.358;2023-05-10T07:10:45;13.50;85.70
64987;DHT22;67903;52.108;9.358;2023-05-10T07:13:33;13.60;84.70
64987;DHT22;67903;52.108;9.358;2023-05-10T07:16:20;13.70;84.00
64987;DHT22;67903;52.108;9.358;2023-05-10T07:19:08;13.80;84.30
64987;DHT22;67903;52.108;9.358;2023-05-10T07:21:55;13.90;83.80
64987;DHT22;67903;52.108;9.358;2023-05-10T07:24:43;13.90;85.20
64987;DHT22;67903;52.108;9.358;2023-05-10T07:27:30;14.00;84.00
64987;DHT22;67903;52.108;9.358;2023-05-10T07:30:17;14.00;83.70
64987;DHT22;67903;52.108;9.358;2023-05-10T07:33:04;13.90;84.40
64987;DHT22;67903;52.108;9.358;2023-05-10T07:35:51;13.90;83.60
64987;DHT22;67903;52.108;9.358;2023-05-10T07:38:38;13.90;84.00
64987;DHT22;67903;52.108;9.358;2023-05-10T07:41:27;13.90;84.70
64987;DHT22;67903;52.108;9.358;2023-05-10T07:44:14;13.80;84.80
64987;DHT22;67903;52.108;9.358;2023-05-10T07:47:01;13.70;84.60
64987;DHT22;67903;52.108;9.358;2023-05-10T07:49:48;13.70;85.10
64987;DHT22;67903;52.108;9.358;2023-05-10T07:52:35;13.70;84.20
64987;DHT22;67903;52.108;9.358;2023-05-10T07:55:22;13.60;84.40
64987;DHT22;67903;52.108;9.358;2023-05-10T07:58:09;13.60;84.20
64987;DHT22;67903;52.108;9.358;2023-05-10T08:00:56;13.60;85.00
64987;DHT22;67903;52.108;9.358;2023-05-10T08:03:43;13.70;84.70
64987;DHT22;67903;52.108;9.358;2023-05-10T08:06:31;13.70;84.20
64987;DHT22;67903;52.108;9.358;2023-05-10T08:09:18;13.70;83.80
64987;DHT22;67903;52.108;9.358;2023-05-10T08:12:10;13.70;82.50
64987;DHT22;67903;52.108;9.358;2023-05-10T08:14:57;13.70;81.70
64987;DHT22;67903;52.108;9.358;2023-05-10T08:17:44;13.70;82.40
64987;DHT22;67903;52.108;9.358;2023-05-10T08:20:31;13.90;82.00
64987;DHT22;67903;52.108;9.358;2023-05-10T08:23:18;14.00;80.80
64987;DHT22;67903;52.108;9.358;2023-05-10T08:26:06;14.00;80.50
64987;DHT22;67903;52.108;9.358;2023-05-10T08:28:53;14.00;80.30
64987;DHT22;67903;52.108;9.358;2023-05-10T08:31:40;14.10;81.00
64987;DHT22;67903;52.108;9.358;2023-05-10T08:34:27;14.10;80.20
64987;DHT22;67903;52.108;9.358;2023-05-10T08:37:14;14.20;80.40
64987;DHT22;67903;52.108;9.358;2023-05-10T08:40:01;14.20;79.70
64987;DHT22;67903;52.108;9.358;2023-05-10T08:42:56;14.40;78.70
64987;DHT22;67903;52.108;9.358;2023-05-10T08:45:45;14.50;78.60
64987;DHT22;67903;52.108;9.358;2023-05-10T08:48:34;14.50;77.70
64987;DHT22;67903;52.108;9.358;2023-05-10T08:51:25;14.50;78.50
64987;DHT22;67903;52.108;9.358;2023-05-10T08:54:13;14.70;78.70
64987;DHT22;67903;52.108;9.358;2023-05-10T08:57:01;14.80;78.20
64987;DHT22;67903;52.108;9.358;2023-05-10T08:59:48;14.90;77.50
64987;DHT22;67903;52.108;9.358;2023-05-10T09:02:37;15.00;76.60
64987;DHT22;67903;52.108;9.358;2023-05-10T09:05:24;14.90;77.00
64987;DHT22;67903;52.108;9.358;2023-05-10T09:08:11;14.90;76.80
64987;DHT22;67903;52.108;9.358;2023-05-10T09:11:00;15.00;77.10
64987;DHT22;67903;52.108;9.358;2023-05-10T09:13:50;15.20;76.90
64987;DHT22;67903;52.108;9.358;2023-05-10T09:16:39;15.40;75.80
64987;DHT22;67903;52.108;9.358;2023-05-10T09:19:27;15.50;75.10
64987;DHT22;67903;52.108;9.358;2023-05-10T09:22:14;15.60;75.40
64987;DHT22;67903;52.108;9.358;2023-05-10T09:27:55;15.60;76.90
64987;DHT22;67903;52.108;9.358;2023-05-10T09:30:42;15.60;73.40
64987;DHT22;67903;52.108;9.358;2023-05-10T09:33:43;15.40;74.30
64987;DHT22;67903;52.108;9.358;2023-05-10T09:36:31;15.30;75.30
64987;DHT22;67903;52.108;9.358;2023-05-10T09:39:18;15.30;75.60
64987;DHT22;67903;52.108;9.358;2023-05-10T09:42:06;15.40;75.50
64987;DHT22;67903;52.108;9.358;2023-05-10T09:44:53;15.60;74.70
64987;DHT22;67903;52.108;9.358;2023-05-10T09:47:41;15.60;74.00
64987;DHT22;67903;52.108;9.358;2023-05-10T09:50:29;15.80;72.80
64987;DHT22;67903;52.108;9.358;2023-05-10T09:53:16;16.00;71.30
64987;DHT22;67903;52.108;9.358;2023-05-10T09:56:03;16.10;72.30
64987;DHT22;67903;52.108;9.358;2023-05-10T09:59:02;16.10;71.40
64987;DHT22;67903;52.108;9.358;2023-05-10T10:01:50;16.00;71.90
64987;DHT22;67903;52.108;9.358;2023-05-10T10:04:41;15.80;72.00
64987;DHT22;67903;52.108;9.358;2023-05-10T10:07:28;15.90;73.10
64987;DHT22;67903;52.108;9.358;2023-05-10T10:10:16;16.00;73.80
64987;DHT22;67903;52.108;9.358;2023-05-10T10:13:03;16.30;73.30
64987;DHT22;67903;52.108;9.358;2023-05-10T10:15:52;16.70;71.10
64987;DHT22;67903;52.108;9.358;2023-05-10T10:18:42;17.00;69.90
64987;DHT22;67903;52.108;9.358;2023-05-10T10:21:29;17.10;69.20
64987;DHT22;67903;52.108;9.358;2023-05-10T10:24:17;17.20;68.50
64987;DHT22;67903;52.108;9.358;2023-05-10T10:33:36;17.40;68.10
64987;DHT22;67903;52.108;9.358;2023-05-10T10:36:26;17.50;69.00
64987;DHT22;67903;52.108;9.358;2023-05-10T10:39:14;17.70;66.20
64987;DHT22;67903;52.108;9.358;2023-05-10T10:42:01;17.30;67.80
64987;DHT22;67903;52.108;9.358;2023-05-10T10:45:13;17.20;67.20
64987;DHT22;67903;52.108;9.358;2023-05-10T10:48:22;17.20;67.40
64987;DHT22;67903;52.108;9.358;2023-05-10T10:51:10;17.30;66.10
64987;DHT22;67903;52.108;9.358;2023-05-10T10:54:11;17.20;66.80
64987;DHT22;67903;52.108;9.358;2023-05-10T10:57:12;17.00;66.90
64987;DHT22;67903;52.108;9.358;2023-05-10T11:00:19;16.70;67.30
64987;DHT22;67903;52.108;9.358;2023-05-10T11:03:09;16.40;69.80
64987;DHT22;67903;52.108;9.358;2023-05-10T11:06:01;15.50;83.50
64987;DHT22;67903;52.108;9.358;2023-05-10T11:08:49;14.10;91.70
64987;DHT22;67903;52.108;9.358;2023-05-10T11:11:50;13.80;93.80
64987;DHT22;67903;52.108;9.358;2023-05-10T11:14:37;13.70;94.60
64987;DHT22;67903;52.108;9.358;2023-05-10T11:17:27;13.90;95.40
64987;DHT22;67903;52.108;9.358;2023-05-10T11:20:17;14.00;95.50
64987;DHT22;67903;52.108;9.358;2023-05-10T11:23:14;14.20;96.10
64987;DHT22;67903;52.108;9.358;2023-05-10T11:26:02;14.20;96.10
64987;DHT22;67903;52.108;9.358;2023-05-10T11:28:49;14.40;96.10
64987;DHT22;67903;52.108;9.358;2023-05-10T11:31:45;14.70;95.90
64987;DHT22;67903;52.108;9.358;2023-05-10T11:34:33;15.00;95.80
64987;DHT22;67903;52.108;9.358;2023-05-10T11:37:20;15.30;95.50
64987;DHT22;67903;52.108;9.358;2023-05-10T11:40:08;15.40;94.10
64987;DHT22;67903;52.108;9.358;2023-05-10T11:42:56;15.80;92.00
64987;DHT22;67903;52.108;9.358;2023-05-10T11:45:45;16.40;91.40
64987;DHT22;67903;52.108;9.358;2023-05-10T11:48:32;16.80;86.10
64987;DHT22;67903;52.108;9.358;2023-05-10T11:51:21;17.20;79.30
64987;DHT22;67903;52.108;9.358;2023-05-10T11:54:09;17.40;79.30
64987;DHT22;67903;52.108;9.358;2023-05-10T11:56:56;17.40;74.40
64987;DHT22;67903;52.108;9.358;2023-05-10T11:59:43;17.10;75.20
64987;DHT22;67903;52.108;9.358;2023-05-10T12:02:31;17.20;76.80
64987;DHT22;67903;52.108;9.358;2023-05-10T12:05:18;17.40;76.40
64987;DHT22;67903;52.108;9.358;2023-05-10T12:08:15;17.50;74.40
64987;DHT22;67903;52.108;9.358;2023-05-10T12:11:07;17.60;74.50
64987;DHT22;67903;52.108;9.358;2023-05-10T12:13:55;17.80;70.70
64987;DHT22;67903;52.108;9.358;2023-05-10T12:16:43;17.80;71.50
64987;DHT22;67903;52.108;9.358;2023-05-10T12:19:37;17.80;71.40
64987;DHT22;67903;52.108;9.358;2023-05-10T12:22:25;18.00;70.00
64987;DHT22;67903;52.108;9.358;2023-05-10T12:25:12;18.20;67.20
64987;DHT22;67903;52.108;9.358;2023-05-10T12:28:02;18.30;68.70
64987;DHT22;67903;52.108;9.358;2023-05-10T12:30:53;18.40;68.60
64987;DHT22;67903;52.108;9.358;2023-05-10T12:33:42;18.40;67.30
64987;DHT22;67903;52.108;9.358;2023-05-10T12:36:30;18.50;68.60
64987;DHT22;67903;52.108;9.358;2023-05-10T12:39:18;18.70;67.30
64987;DHT22;67903;52.108;9.358;2023-05-10T12:42:05;18.70;67.10
64987;DHT22;67903;52.108;9.358;2023-05-10T12:44:56;19.00;66.70
64987;DHT22;67903;52.108;9.358;2023-05-10T12:47:44;19.20;65.80
64987;DHT22;67903;52.108;9.358;2023-05-10T12:50:31;19.40;66.30
64987;DHT22;67903;52.108;9.358;2023-05-10T12:53:18;19.60;63.50
64987;DHT22;67903;52.108;9.358;2023-05-10T12:56:05;19.70;63.20
64987;DHT22;67903;52.108;9.358;2023-05-10T12:58:52;19.50;62.80
64987;DHT22;67903;52.108;9.358;2023-05-10T13:01:39;19.50;62.00
64987;DHT22;67903;52.108;9.358;2023-05-10T13:04:27;19.60;61.90
64987;DHT22;67903;52.108;9.358;2023-05-10T13:07:14;19.50;63.50
64987;DHT22;67903;52.108;9.358;2023-05-10T13:10:01;19.50;61.40
64987;DHT22;67903;52.108;9.358;2023-05-10T13:12:48;18.90;62.80
64987;DHT22;67903;52.108;9.358;2023-05-10T13:15:35;18.70;63.20
64987;DHT22;67903;52.108;9.358;2023-05-10T13:18:22;18.50;63.70
64987;DHT22;67903;52.108;9.358;2023-05-10T13:21:11;18.50;64.70
64987;DHT22;67903;52.108;9.358;2023-05-10T13:23:58;18.40;65.00
64987;DHT22;67903;52.108;9.358;2023-05-10T13:26:45;18.30;66.00
64987;DHT22;67903;52.108;9.358;2023-05-10T13:29:32;18.10;64.60
64987;DHT22;67903;52.108;9.358;2023-05-10T13:32:19;18.20;63.90
64987;DHT22;67903;52.108;9.358;2023-05-10T13:35:07;18.20;64.30
64987;DHT22;67903;52.108;9.358;2023-05-10T13:37:54;18.30;64.40
64987;DHT22;67903;52.108;9.358;2023-05-10T13:40:44;18.40;63.60
64987;DHT22;67903;52.108;9.358;2023-05-10T13:43:31;18.60;62.80
64987;DHT22;67903;52.108;9.358;2023-05-10T13:46:18;18.80;63.40
64987;DHT22;67903;52.108;9.358;2023-05-10T13:49:06;19.10;61.80
64987;DHT22;67903;52.108;9.358;2023-05-10T13:51:53;19.20;62.50
64987;DHT22;67903;52.108;9.358;2023-05-10T13:54:41;19.00;62.20
64987;DHT22;67903;52.108;9.358;2023-05-10T13:57:28;18.90;63.00
64987;DHT22;67903;52.108;9.358;2023-05-10T14:00:17;18.50;62.40
64987;DHT22;67903;52.108;9.358;2023-05-10T14:03:04;18.30;64.10
64987;DHT22;67903;52.108;9.358;2023-05-10T14:05:52;17.60;68.00
64987;DHT22;67903;52.108;9.358;2023-05-10T14:08:39;16.70;72.00
64987;DHT22;67903;52.108;9.358;2023-05-10T14:11:26;16.10;74.80
64987;DHT22;67903;52.108;9.358;2023-05-10T14:14:16;15.80;76.40
64987;DHT22;67903;52.108;9.358;2023-05-10T14:17:04;15.50;78.40
64987;DHT22;67903;52.108;9.358;2023-05-10T14:19:51;15.00;85.80
64987;DHT22;67903;52.108;9.358;2023-05-10T14:22:38;14.70;90.00
64987;DHT22;67903;52.108;9.358;2023-05-10T14:25:26;14.70;89.90
64987;DHT22;67903;52.108;9.358;2023-05-10T14:28:13;14.80;89.00
64987;DHT22;67903;52.108;9.358;2023-05-10T14:31:00;14.90;85.10
64987;DHT22;67903;52.108;9.358;2023-05-10T14:33:47;15.00;83.40
64987;DHT22;67903;52.108;9.358;2023-05-10T14:36:34;15.00;83.30
64987;DHT22;67903;52.108;9.358;2023-05-10T14:39:21;15.20;82.40
64987;DHT22;67903;52.108;9.358;2023-05-10T14:42:09;15.40;81.60
64987;DHT22;67903;52.108;9.358;2023-05-10T14:44:56;15.60;80.60
64987;DHT22;67903;52.108;9.358;2023-05-10T14:47:44;16.40;80.70
64987;DHT22;67903;52.108;9.358;2023-05-10T14:50:31;17.50;75.60
64987;DHT22;67903;52.108;9.358;2023-05-10T14:53:23;17.60;74.60
64987;DHT22;67903;52.108;9.358;2023-05-10T14:56:10;17.30;77.30
64987;DHT22;67903;52.108;9.358;2023-05-10T14:58:57;17.20;77.10
64987;DHT22;67903;52.108;9.358;2023-05-10T15:01:45;17.10;76.50
64987;DHT22;67903;52.108;9.358;2023-05-10T15:04:33;17.20;78.20
64987;DHT22;67903;52.108;9.358;2023-05-10T15:07:20;17.50;75.10
64987;DHT22;67903;52.108;9.358;2023-05-10T15:10:08;17.50;76.80
64987;DHT22;67903;52.108;9.358;2023-05-10T15:12:55;17.50;73.30
64987;DHT22;67903;52.108;9.358;2023-05-10T15:15:42;17.50;74.30
64987;DHT22;67903;52.108;9.358;2023-05-10T15:18:29;17.40;75.20
64987;DHT22;67903;52.108;9.358;2023-05-10T15:21:17;17.50;75.40
64987;DHT22;67903;52.108;9.358;2023-05-10T15:24:08;17.40;74.30
64987;DHT22;67903;52.108;9.358;2023-05-10T15:26:55;17.20;72.80
64987;DHT22;67903;52.108;9.358;2023-05-10T15:29:42;17.00;75.50
64987;DHT22;67903;52.108;9.358;2023-05-10T15:32:29;16.80;76.20
64987;DHT22;67903;52.108;9.358;2023-05-10T15:35:17;16.60;78.10
64987;DHT22;67903;52.108;9.358;2023-05-10T15:38:04;16.50;80.10
64987;DHT22;67903;52.108;9.358;2023-05-10T15:40:56;16.40;79.90
64987;DHT22;67903;52.108;9.358;2023-05-10T15:43:43;16.20;80.30
64987;DHT22;67903;52.108;9.358;2023-05-10T15:46:30;16.00;78.00
64987;DHT22;67903;52.108;9.358;2023-05-10T15:49:18;16.00;79.60
64987;DHT22;67903;52.108;9.358;2023-05-10T15:52:05;14.30;93.30
64987;DHT22;67903;52.108;9.358;2023-05-10T15:54:52;13.70;95.40
64987;DHT22;67903;52.108;9.358;2023-05-10T15:57:39;13.30;96.00
64987;DHT22;67903;52.108;9.358;2023-05-10T16:00:27;12.90;96.50
64987;DHT22;67903;52.108;9.358;2023-05-10T16:03:14;13.00;96.90
64987;DHT22;67903;52.108;9.358;2023-05-10T16:06:02;13.00;97.10
64987;DHT22;67903;52.108;9.358;2023-05-10T16:08:49;13.00;97.30
64987;DHT22;67903;52.108;9.358;2023-05-10T16:11:38;13.30;97.60
64987;DHT22;67903;52.108;9.358;2023-05-10T16:14:25;13.50;97.90
64987;DHT22;67903;52.108;9.358;2023-05-10T16:17:13;13.60;98.00
64987;DHT22;67903;52.108;9.358;2023-05-10T16:20:01;13.60;98.00
64987;DHT22;67903;52.108;9.358;2023-05-10T16:22:48;13.60;98.20
64987;DHT22;67903;52.108;9.358;2023-05-10T16:25:35;13.60;98.20
64987;DHT22;67903;52.108;9.358;2023-05-10T16:28:22;13.80;98.30
64987;DHT22;67903;52.108;9.358;2023-05-10T16:31:09;13.50;98.30
64987;DHT22;67903;52.108;9.358;2023-05-10T16:33:57;13.50;98.40
64987;DHT22;67903;52.108;9.358;2023-05-10T16:36:44;13.30;98.20
64987;DHT22;67903;52.108;9.358;2023-05-10T16:39:31;13.10;98.30
64987;DHT22;67903;52.108;9.358;2023-05-10T16:42:18;13.30;98.50
64987;DHT22;67903;52.108;9.358;2023-05-10T16:45:05;13.10;98.50
64987;DHT22;67903;52.108;9.358;2023-05-10T16:47:53;13.30;98.60
64987;DHT22;67903;52.108;9.358;2023-05-10T16:50:44;13.30;98.60
64987;DHT22;67903;52.108;9.358;2023-05-10T16:53:31;13.50;98.70
64987;DHT22;67903;52.108;9.358;2023-05-10T16:56:18;13.50;98.80
64987;DHT22;67903;52.108;9.358;2023-05-10T16:59:07;13.30;98.70
64987;DHT22;67903;52.108;9.358;2023-05-10T17:01:54;13.30;98.80
64987;DHT22;67903;52.108;9.358;2023-05-10T17:04:42;13.60;98.90
64987;DHT22;67903;52.108;9.358;2023-05-10T17:07:29;13.80;98.90
64987;DHT22;67903;52.108;9.358;2023-05-10T17:10:16;13.80;98.90
64987;DHT22;67903;52.108;9.358;2023-05-10T17:13:03;13.90;98.90
64987;DHT22;67903;52.108;9.358;2023-05-10T17:15:50;13.70;99.00
64987;DHT22;67903;52.108;9.358;2023-05-10T17:18:37;13.80;99.00
64987;DHT22;67903;52.108;9.358;2023-05-10T17:21:24;13.70;99.00
64987;DHT22;67903;52.108;9.358;2023-05-10T17:24:12;13.90;99.10
64987;DHT22;67903;52.108;9.358;2023-05-10T17:27:00;13.70;99.10
64987;DHT22;67903;52.108;9.358;2023-05-10T17:29:49;13.60;99.10
64987;DHT22;67903;52.108;9.358;2023-05-10T17:32:36;13.50;99.00
64987;DHT22;67903;52.108;9.358;2023-05-10T17:35:23;13.60;99.10
64987;DHT22;67903;52.108;9.358;2023-05-10T17:38:10;13.70;99.10
64987;DHT22;67903;52.108;9.358;2023-05-10T17:40:57;13.80;99.10
64987;DHT22;67903;52.108;9.358;2023-05-10T17:43:44;13.80;99.10
64987;DHT22;67903;52.108;9.358;2023-05-10T17:46:31;14.00;99.20
64987;DHT22;67903;52.108;9.358;2023-05-10T17:49:18;14.00;99.20
64987;DHT22;67903;52.108;9.358;2023-05-10T17:52:05;13.90;99.10
64987;DHT22;67903;52.108;9.358;2023-05-10T17:54:53;13.90;99.10
64987;DHT22;67903;52.108;9.358;2023-05-10T17:57:40;13.60;99.00
64987;DHT22;67903;52.108;9.358;2023-05-10T18:00:27;13.90;99.10
64987;DHT22;67903;52.108;9.358;2023-05-10T18:03:14;13.90;99.20